VAM | Vabird-VBD

Virtual Vabird! Aerolínea Virtual de habla hispana, desde 2011




 INFORMACIÓN METAR y TAF
METAR FOR LECH
ADDS - METARS form results

(2237 UTC 09 May 2021)
Data provider http://aviationweather.gov/metar/data/
 
METAR text: LECH 092230Z AUTO VRB01KT 3900 BR FEW006 15/15 Q1009
Conditions at: LECH (CASTELLON , ES) observed 2230 UTC 09 May 2021
Temperature: 15.0°C (59°F)
Dewpoint: 15.0°C (59°F) [RH = 100%]
Pressure (altimeter): 29.79 inches Hg (1009.0 mb)
Winds: variable direction winds at 1 MPH (1 knots; 0.5 m/s)
Visibility: 2.42 miles (3.89 km)
Ceiling: at least 12,000 feet AGL
Clouds: few clouds at 600 feet AGL
Weather: BR  (mist)

METAR text: LECH 092200Z AUTO VRB02KT 3700 BR FEW003 15/15 Q1008
Conditions at: LECH (CASTELLON , ES) observed 2200 UTC 09 May 2021
Temperature: 15.0°C (59°F)
Dewpoint: 15.0°C (59°F) [RH = 100%]
Pressure (altimeter): 29.76 inches Hg (1008.0 mb)
Winds: variable direction winds at 2 MPH (2 knots; 1.0 m/s)
Visibility: 2.30 miles (3.70 km)
Ceiling: at least 12,000 feet AGL
Clouds: few clouds at 300 feet AGL
Weather: BR  (mist)

 MAPA DE AEROPUERTO

 INFORMACIÓN DE PISTA